sensor_id;sensor_type;location;lat;lon;timestamp;pressure;altitude;pressure_sealevel;temperature;humidity
53932;BME280;39844;52.496;13.482;2023-02-05T00:00:27;103818.66;;;-1.02;73.43
53932;BME280;39844;52.496;13.482;2023-02-05T00:02:52;103822.91;;;-1.02;73.22
53932;BME280;39844;52.496;13.482;2023-02-05T00:05:18;103829.84;;;-1.01;74.30
53932;BME280;39844;52.496;13.482;2023-02-05T00:07:43;103825.06;;;-1.07;73.59
53932;BME280;39844;52.496;13.482;2023-02-05T00:10:09;103823.13;;;-1.09;74.41
53932;BME280;39844;52.496;13.482;2023-02-05T00:12:34;103816.25;;;-1.09;74.41
53932;BME280;39844;52.496;13.482;2023-02-05T00:15:00;103829.03;;;-1.10;74.55
53932;BME280;39844;52.496;13.482;2023-02-05T00:17:25;103819.47;;;-1.11;74.89
53932;BME280;39844;52.496;13.482;2023-02-05T00:19:50;103814.47;;;-1.10;75.09
53932;BME280;39844;52.496;13.482;2023-02-05T00:22:15;103821.78;;;-1.14;74.49
53932;BME280;39844;52.496;13.482;2023-02-05T00:24:41;103826.78;;;-1.16;75.78
53932;BME280;39844;52.496;13.482;2023-02-05T00:27:06;103822.53;;;-1.15;76.29
53932;BME280;39844;52.496;13.482;2023-02-05T00:29:32;103822.25;;;-1.18;75.26
53932;BME280;39844;52.496;13.482;2023-02-05T00:31:57;103816.03;;;-1.20;75.25
53932;BME280;39844;52.496;13.482;2023-02-05T00:34:22;103809.06;;;-1.21;75.98
53932;BME280;39844;52.496;13.482;2023-02-05T00:36:47;103809.06;;;-1.21;76.04
53932;BME280;39844;52.496;13.482;2023-02-05T00:39:13;103809.56;;;-1.25;74.93
53932;BME280;39844;52.496;13.482;2023-02-05T00:41:38;103810.31;;;-1.27;74.51
53932;BME280;39844;52.496;13.482;2023-02-05T00:44:03;103811.84;;;-1.29;73.83
53932;BME280;39844;52.496;13.482;2023-02-05T00:46:29;103811.84;;;-1.29;73.67
53932;BME280;39844;52.496;13.482;2023-02-05T00:48:54;103809.28;;;-1.29;74.46
53932;BME280;39844;52.496;13.482;2023-02-05T00:51:20;103807.72;;;-1.27;74.75
53932;BME280;39844;52.496;13.482;2023-02-05T00:53:45;103805.16;;;-1.27;74.84
53932;BME280;39844;52.496;13.482;2023-02-05T00:56:10;103805.31;;;-1.25;75.86
53932;BME280;39844;52.496;13.482;2023-02-05T00:58:36;103803.50;;;-1.26;75.22
53932;BME280;39844;52.496;13.482;2023-02-05T01:01:01;103803.38;;;-1.27;75.89
53932;BME280;39844;52.496;13.482;2023-02-05T01:03:27;103793.19;;;-1.26;77.37
53932;BME280;39844;52.496;13.482;2023-02-05T01:05:52;103791.22;;;-1.29;76.70
53932;BME280;39844;52.496;13.482;2023-02-05T01:08:17;103785.78;;;-1.32;77.30
53932;BME280;39844;52.496;13.482;2023-02-05T01:10:44;103784.00;;;-1.33;78.99
53932;BME280;39844;52.496;13.482;2023-02-05T01:13:11;103787.94;;;-1.36;78.16
53932;BME280;39844;52.496;13.482;2023-02-05T01:15:36;103775.69;;;-1.39;78.88
53932;BME280;39844;52.496;13.482;2023-02-05T01:18:02;103775.41;;;-1.42;79.43
53932;BME280;39844;52.496;13.482;2023-02-05T01:20:27;103765.59;;;-1.46;79.62
53932;BME280;39844;52.496;13.482;2023-02-05T01:22:52;103766.22;;;-1.48;80.50
53932;BME280;39844;52.496;13.482;2023-02-05T01:25:18;103759.84;;;-1.52;80.45
53932;BME280;39844;52.496;13.482;2023-02-05T01:27:43;103757.78;;;-1.56;79.90
53932;BME280;39844;52.496;13.482;2023-02-05T01:30:10;103755.66;;;-1.60;80.59
53932;BME280;39844;52.496;13.482;2023-02-05T01:32:35;103751.28;;;-1.61;81.35
53932;BME280;39844;52.496;13.482;2023-02-05T01:35:00;103751.75;;;-1.65;80.77
53932;BME280;39844;52.496;13.482;2023-02-05T01:37:25;103761.19;;;-1.74;79.94
53932;BME280;39844;52.496;13.482;2023-02-05T01:39:51;103764.53;;;-1.75;80.47
53932;BME280;39844;52.496;13.482;2023-02-05T01:42:19;103750.91;;;-1.74;80.64
53932;BME280;39844;52.496;13.482;2023-02-05T01:47:46;103755.16;;;-1.83;80.67
53932;BME280;39844;52.496;13.482;2023-02-05T01:50:12;103757.91;;;-1.81;81.80
53932;BME280;39844;52.496;13.482;2023-02-05T01:52:38;103748.22;;;-1.84;82.16
53932;BME280;39844;52.496;13.482;2023-02-05T01:55:04;103748.22;;;-1.84;82.57
53932;BME280;39844;52.496;13.482;2023-02-05T01:57:31;103742.03;;;-1.86;82.84
53932;BME280;39844;52.496;13.482;2023-02-05T01:59:57;103739.47;;;-1.86;83.23
53932;BME280;39844;52.496;13.482;2023-02-05T02:02:22;103737.34;;;-1.90;82.38
53932;BME280;39844;52.496;13.482;2023-02-05T02:04:57;103729.81;;;-1.97;82.00
53932;BME280;39844;52.496;13.482;2023-02-05T02:07:24;103727.84;;;-2.00;83.55
53932;BME280;39844;52.496;13.482;2023-02-05T02:09:51;103727.09;;;-1.99;84.39
53932;BME280;39844;52.496;13.482;2023-02-05T02:12:25;103723.19;;;-2.04;83.58
53932;BME280;39844;52.496;13.482;2023-02-05T02:14:55;103724.41;;;-2.09;83.17
53932;BME280;39844;52.496;13.482;2023-02-05T02:17:23;103713.22;;;-2.09;84.55
53932;BME280;39844;52.496;13.482;2023-02-05T02:30:25;103703.84;;;-2.17;85.66
53932;BME280;39844;52.496;13.482;2023-02-05T02:38:08;103692.09;;;-2.24;86.37
53932;BME280;39844;52.496;13.482;2023-02-05T02:40:41;103688.44;;;-2.26;87.47
53932;BME280;39844;52.496;13.482;2023-02-05T02:43:50;103681.50;;;-2.27;87.97
53932;BME280;39844;52.496;13.482;2023-02-05T02:46:21;103675.16;;;-2.30;87.71
53932;BME280;39844;52.496;13.482;2023-02-05T02:48:49;103683.63;;;-2.31;88.17
53932;BME280;39844;52.496;13.482;2023-02-05T02:51:17;103677.72;;;-2.30;88.62
53932;BME280;39844;52.496;13.482;2023-02-05T02:53:46;103684.41;;;-2.32;88.08
53932;BME280;39844;52.496;13.482;2023-02-05T02:56:13;103678.81;;;-2.37;87.78
53932;BME280;39844;52.496;13.482;2023-02-05T02:58:47;103677.13;;;-2.36;88.37
53932;BME280;39844;52.496;13.482;2023-02-05T03:01:14;103689.13;;;-2.37;88.34
53932;BME280;39844;52.496;13.482;2023-02-05T03:03:44;103680.63;;;-2.36;88.32
53932;BME280;39844;52.496;13.482;2023-02-05T03:06:13;103682.56;;;-2.33;89.13
53932;BME280;39844;52.496;13.482;2023-02-05T03:08:54;103687.28;;;-2.38;88.34
53932;BME280;39844;52.496;13.482;2023-02-05T03:11:21;103691.53;;;-2.38;88.58
53932;BME280;39844;52.496;13.482;2023-02-05T03:13:47;103695.31;;;-2.43;87.79
53932;BME280;39844;52.496;13.482;2023-02-05T03:16:13;103691.69;;;-2.45;88.72
53932;BME280;39844;52.496;13.482;2023-02-05T03:18:39;103688.38;;;-2.44;89.04
53932;BME280;39844;52.496;13.482;2023-02-05T03:21:21;103680.94;;;-2.41;90.08
53932;BME280;39844;52.496;13.482;2023-02-05T03:23:48;103682.00;;;-2.39;90.05
53932;BME280;39844;52.496;13.482;2023-02-05T03:26:27;103682.75;;;-2.40;89.67
53932;BME280;39844;52.496;13.482;2023-02-05T03:28:54;103679.44;;;-2.39;89.76
53932;BME280;39844;52.496;13.482;2023-02-05T03:31:26;103684.28;;;-2.42;89.39
53932;BME280;39844;52.496;13.482;2023-02-05T03:37:20;103688.50;;;-2.43;89.41
53932;BME280;39844;52.496;13.482;2023-02-05T03:48:14;103681.50;;;-2.27;85.28
53932;BME280;39844;52.496;13.482;2023-02-05T03:56:41;103691.50;;;-2.30;85.95
53932;BME280;39844;52.496;13.482;2023-02-05T03:59:08;103693.16;;;-2.30;85.61
53932;BME280;39844;52.496;13.482;2023-02-05T04:01:35;103687.28;;;-2.29;85.56
53932;BME280;39844;52.496;13.482;2023-02-05T04:04:00;103687.28;;;-2.29;85.51
53932;BME280;39844;52.496;13.482;2023-02-05T04:06:26;103691.19;;;-2.24;86.61
53932;BME280;39844;52.496;13.482;2023-02-05T04:08:51;103699.31;;;-2.20;87.38
53932;BME280;39844;52.496;13.482;2023-02-05T04:11:16;103707.19;;;-2.18;86.72
53932;BME280;39844;52.496;13.482;2023-02-05T04:13:42;103710.53;;;-2.19;86.32
53932;BME280;39844;52.496;13.482;2023-02-05T04:16:07;103709.50;;;-2.21;86.08
53932;BME280;39844;52.496;13.482;2023-02-05T04:18:32;103712.31;;;-2.18;87.23
53932;BME280;39844;52.496;13.482;2023-02-05T04:20:57;103721.13;;;-2.16;88.04
53932;BME280;39844;52.496;13.482;2023-02-05T04:23:23;103725.91;;;-2.11;88.25
53932;BME280;39844;52.496;13.482;2023-02-05T04:25:52;103719.09;;;-2.10;87.80
53932;BME280;39844;52.496;13.482;2023-02-05T04:28:17;103723.22;;;-2.12;87.04
53932;BME280;39844;52.496;13.482;2023-02-05T04:30:42;103724.75;;;-2.14;87.07
53932;BME280;39844;52.496;13.482;2023-02-05T04:33:07;103719.28;;;-2.17;87.18
53932;BME280;39844;52.496;13.482;2023-02-05T04:35:33;103718.69;;;-2.15;88.08
53932;BME280;39844;52.496;13.482;2023-02-05T04:37:58;103709.59;;;-2.11;88.45
53932;BME280;39844;52.496;13.482;2023-02-05T04:40:23;103709.84;;;-2.08;88.37
53932;BME280;39844;52.496;13.482;2023-02-05T04:42:48;103709.59;;;-2.11;87.51
53932;BME280;39844;52.496;13.482;2023-02-05T04:45:14;103702.63;;;-2.12;87.25
53932;BME280;39844;52.496;13.482;2023-02-05T04:47:39;103706.13;;;-2.12;86.81
53932;BME280;39844;52.496;13.482;2023-02-05T04:50:05;103702.63;;;-2.12;87.07
53932;BME280;39844;52.496;13.482;2023-02-05T04:52:30;103711.38;;;-2.10;87.66
53932;BME280;39844;52.496;13.482;2023-02-05T04:54:55;103695.19;;;-2.09;87.17
53932;BME280;39844;52.496;13.482;2023-02-05T04:57:21;103698.69;;;-2.09;87.02
53932;BME280;39844;52.496;13.482;2023-02-05T04:59:46;103697.78;;;-2.09;86.90
53932;BME280;39844;52.496;13.482;2023-02-05T05:02:11;103700.34;;;-2.09;87.06
53932;BME280;39844;52.496;13.482;2023-02-05T05:04:37;103689.28;;;-2.08;86.95
53932;BME280;39844;52.496;13.482;2023-02-05T05:07:02;103697.00;;;-2.08;86.78
53932;BME280;39844;52.496;13.482;2023-02-05T05:09:27;103688.41;;;-2.09;86.68
53932;BME280;39844;52.496;13.482;2023-02-05T05:11:53;103694.41;;;-2.08;86.54
53932;BME280;39844;52.496;13.482;2023-02-05T05:14:19;103695.34;;;-2.08;86.71
53932;BME280;39844;52.496;13.482;2023-02-05T05:16:45;103697.91;;;-2.08;86.42
53932;BME280;39844;52.496;13.482;2023-02-05T05:19:10;103695.34;;;-2.08;86.77
53932;BME280;39844;52.496;13.482;2023-02-05T05:21:35;103687.00;;;-2.05;87.21
53932;BME280;39844;52.496;13.482;2023-02-05T05:24:01;103678.66;;;-2.03;87.25
53932;BME280;39844;52.496;13.482;2023-02-05T05:26:26;103685.47;;;-2.03;86.51
53932;BME280;39844;52.496;13.482;2023-02-05T05:28:55;103690.91;;;-2.00;87.16
53932;BME280;39844;52.496;13.482;2023-02-05T05:31:21;103691.94;;;-1.98;87.89
53932;BME280;39844;52.496;13.482;2023-02-05T05:33:46;103697.38;;;-1.95;87.38
53932;BME280;39844;52.496;13.482;2023-02-05T05:36:12;103695.59;;;-1.96;86.63
53932;BME280;39844;52.496;13.482;2023-02-05T05:38:38;103696.84;;;-2.01;86.15
53932;BME280;39844;52.496;13.482;2023-02-05T05:41:04;103701.97;;;-2.01;86.83
53932;BME280;39844;52.496;13.482;2023-02-05T05:43:29;103711.19;;;-2.03;86.61
53932;BME280;39844;52.496;13.482;2023-02-05T05:45:54;103707.75;;;-2.04;87.21
53932;BME280;39844;52.496;13.482;2023-02-05T05:48:19;103718.91;;;-2.03;86.96
53932;BME280;39844;52.496;13.482;2023-02-05T05:50:45;103724.06;;;-2.03;86.88
53932;BME280;39844;52.496;13.482;2023-02-05T05:53:10;103721.50;;;-2.03;87.26
53932;BME280;39844;52.496;13.482;2023-02-05T05:55:35;103731.34;;;-1.99;87.61
53932;BME280;39844;52.496;13.482;2023-02-05T05:58:01;103726.81;;;-2.02;86.71
53932;BME280;39844;52.496;13.482;2023-02-05T06:00:26;103719.69;;;-2.04;86.46
53932;BME280;39844;52.496;13.482;2023-02-05T06:02:51;103714.56;;;-2.04;86.86
53932;BME280;39844;52.496;13.482;2023-02-05T06:05:16;103710.78;;;-2.08;86.16
53932;BME280;39844;52.496;13.482;2023-02-05T06:07:42;103709.13;;;-2.07;86.49
53932;BME280;39844;52.496;13.482;2023-02-05T06:10:07;103704.72;;;-2.08;86.70
53932;BME280;39844;52.496;13.482;2023-02-05T06:12:32;103705.00;;;-2.05;87.80
53932;BME280;39844;52.496;13.482;2023-02-05T06:14:58;103702.44;;;-2.05;87.60
53932;BME280;39844;52.496;13.482;2023-02-05T06:17:23;103700.66;;;-2.06;87.51
53932;BME280;39844;52.496;13.482;2023-02-05T06:19:48;103703.66;;;-2.10;87.37
53932;BME280;39844;52.496;13.482;2023-02-05T06:22:14;103708.53;;;-2.13;87.09
53932;BME280;39844;52.496;13.482;2023-02-05T06:24:39;103698.72;;;-2.17;87.15
53932;BME280;39844;52.496;13.482;2023-02-05T06:27:04;103701.16;;;-2.19;87.07
53932;BME280;39844;52.496;13.482;2023-02-05T06:29:29;103698.72;;;-2.17;87.10
53932;BME280;39844;52.496;13.482;2023-02-05T06:31:55;103703.84;;;-2.17;87.25
53932;BME280;39844;52.496;13.482;2023-02-05T06:34:20;103706.84;;;-2.13;87.42
53932;BME280;39844;52.496;13.482;2023-02-05T06:36:45;103702.00;;;-2.10;87.48
53932;BME280;39844;52.496;13.482;2023-02-05T06:39:11;103700.47;;;-2.08;87.48
53932;BME280;39844;52.496;13.482;2023-02-05T06:41:36;103696.25;;;-2.07;87.32
53932;BME280;39844;52.496;13.482;2023-02-05T06:44:01;103697.16;;;-2.07;87.30
53932;BME280;39844;52.496;13.482;2023-02-05T06:46:27;103702.31;;;-2.07;86.93
53932;BME280;39844;52.496;13.482;2023-02-05T06:48:52;103702.44;;;-2.05;87.01
53932;BME280;39844;52.496;13.482;2023-02-05T06:51:17;103705.31;;;-2.02;87.10
53932;BME280;39844;52.496;13.482;2023-02-05T06:53:42;103699.41;;;-2.01;86.96
53932;BME280;39844;52.496;13.482;2023-02-05T06:56:08;103698.91;;;-1.97;86.79
53932;BME280;39844;52.496;13.482;2023-02-05T06:58:33;103699.84;;;-1.97;86.27
53932;BME280;39844;52.496;13.482;2023-02-05T07:00:58;103707.06;;;-1.93;86.41
53932;BME280;39844;52.496;13.482;2023-02-05T07:03:23;103704.78;;;-1.89;86.38
53932;BME280;39844;52.496;13.482;2023-02-05T07:05:49;103706.88;;;-1.85;86.08
53932;BME280;39844;52.496;13.482;2023-02-05T07:08:15;103710.66;;;-1.82;86.56
53932;BME280;39844;52.496;13.482;2023-02-05T07:10:40;103717.88;;;-1.78;86.36
53932;BME280;39844;52.496;13.482;2023-02-05T07:13:06;103719.72;;;-1.77;85.97
53932;BME280;39844;52.496;13.482;2023-02-05T07:15:31;103723.31;;;-1.75;85.78
53932;BME280;39844;52.496;13.482;2023-02-05T07:17:56;103729.69;;;-1.71;86.23
53932;BME280;39844;52.496;13.482;2023-02-05T07:20:22;103727.22;;;-1.70;86.05
53932;BME280;39844;52.496;13.482;2023-02-05T07:22:47;103719.19;;;-1.64;86.56
53932;BME280;39844;52.496;13.482;2023-02-05T07:25:12;103706.47;;;-1.63;85.65
53932;BME280;39844;52.496;13.482;2023-02-05T07:27:37;103707.34;;;-1.62;85.76
53932;BME280;39844;52.496;13.482;2023-02-05T07:30:03;103709.28;;;-1.60;85.48
53932;BME280;39844;52.496;13.482;2023-02-05T07:32:29;103700.81;;;-1.59;84.72
53932;BME280;39844;52.496;13.482;2023-02-05T07:34:54;103705.47;;;-1.55;85.00
53932;BME280;39844;52.496;13.482;2023-02-05T07:37:19;103702.28;;;-1.52;85.16
53932;BME280;39844;52.496;13.482;2023-02-05T07:39:44;103706.56;;;-1.53;83.79
53932;BME280;39844;52.496;13.482;2023-02-05T07:42:10;103711.97;;;-1.50;84.38
53932;BME280;39844;52.496;13.482;2023-02-05T07:44:35;103713.03;;;-1.48;83.90
53932;BME280;39844;52.496;13.482;2023-02-05T07:47:00;103702.97;;;-1.45;83.94
53932;BME280;39844;52.496;13.482;2023-02-05T07:49:26;103701.47;;;-1.43;83.50
53932;BME280;39844;52.496;13.482;2023-02-05T07:51:51;103699.66;;;-1.44;82.60
53932;BME280;39844;52.496;13.482;2023-02-05T07:54:16;103692.84;;;-1.43;82.10
53932;BME280;39844;52.496;13.482;2023-02-05T07:56:42;103687.53;;;-1.45;81.35
53932;BME280;39844;52.496;13.482;2023-02-05T07:59:07;103680.72;;;-1.44;81.02
53932;BME280;39844;52.496;13.482;2023-02-05T08:01:33;103690.09;;;-1.45;80.84
53932;BME280;39844;52.496;13.482;2023-02-05T08:03:59;103684.94;;;-1.45;80.17
53932;BME280;39844;52.496;13.482;2023-02-05T08:06:25;103679.81;;;-1.45;80.26
53932;BME280;39844;52.496;13.482;2023-02-05T08:08:50;103672.53;;;-1.40;80.22
53932;BME280;39844;52.496;13.482;2023-02-05T08:11:16;103681.56;;;-1.35;80.41
53932;BME280;39844;52.496;13.482;2023-02-05T08:13:43;103687.13;;;-1.31;80.24
53932;BME280;39844;52.496;13.482;2023-02-05T08:16:09;103679.94;;;-1.24;80.38
53932;BME280;39844;52.496;13.482;2023-02-05T08:18:35;103694.16;;;-1.19;80.24
53932;BME280;39844;52.496;13.482;2023-02-05T08:21:00;103689.56;;;-1.13;80.45
53932;BME280;39844;52.496;13.482;2023-02-05T08:23:25;103683.16;;;-1.08;80.08
53932;BME280;39844;52.496;13.482;2023-02-05T08:25:55;103672.38;;;-1.04;80.19
53932;BME280;39844;52.496;13.482;2023-02-05T08:28:21;103672.16;;;-0.97;80.75
53932;BME280;39844;52.496;13.482;2023-02-05T08:30:46;103666.34;;;-0.95;79.83
53932;BME280;39844;52.496;13.482;2023-02-05T08:33:12;103665.44;;;-0.95;79.32
53932;BME280;39844;52.496;13.482;2023-02-05T08:35:37;103663.78;;;-0.95;79.41
53932;BME280;39844;52.496;13.482;2023-02-05T08:38:02;103666.00;;;-0.89;79.68
53932;BME280;39844;52.496;13.482;2023-02-05T08:40:28;103666.25;;;-0.86;79.32
53932;BME280;39844;52.496;13.482;2023-02-05T08:42:53;103671.97;;;-0.80;79.03
53932;BME280;39844;52.496;13.482;2023-02-05T08:45:19;103665.25;;;-0.78;78.18
53932;BME280;39844;52.496;13.482;2023-02-05T08:47:44;103662.97;;;-0.75;77.53
53932;BME280;39844;52.496;13.482;2023-02-05T08:50:10;103653.97;;;-0.70;77.21
53932;BME280;39844;52.496;13.482;2023-02-05T08:52:35;103665.06;;;-0.61;77.26
53932;BME280;39844;52.496;13.482;2023-02-05T08:55:00;103667.44;;;-0.54;76.73
53932;BME280;39844;52.496;13.482;2023-02-05T08:57:29;103667.97;;;-0.48;76.05
53932;BME280;39844;52.496;13.482;2023-02-05T08:59:55;103665.94;;;-0.42;75.58
53932;BME280;39844;52.496;13.482;2023-02-05T09:02:21;103668.78;;;-0.39;75.01
53932;BME280;39844;52.496;13.482;2023-02-05T09:04:47;103667.63;;;-0.32;75.51
53932;BME280;39844;52.496;13.482;2023-02-05T09:07:12;103659.25;;;-0.30;74.83
53932;BME280;39844;52.496;13.482;2023-02-05T09:09:37;103657.06;;;-0.25;74.98
53932;BME280;39844;52.496;13.482;2023-02-05T09:12:03;103649.47;;;-0.24;74.17
53932;BME280;39844;52.496;13.482;2023-02-05T09:14:28;103663.41;;;-0.22;74.12
53932;BME280;39844;52.496;13.482;2023-02-05T09:16:53;103655.13;;;-0.18;74.54
53932;BME280;39844;52.496;13.482;2023-02-05T09:19:19;103656.31;;;-0.14;74.15
53932;BME280;39844;52.496;13.482;2023-02-05T09:21:44;103660.06;;;-0.11;73.89
53932;BME280;39844;52.496;13.482;2023-02-05T09:24:09;103661.38;;;-0.06;74.12
53932;BME280;39844;52.496;13.482;2023-02-05T09:26:34;103661.88;;;0.00;73.91
53932;BME280;39844;52.496;13.482;2023-02-05T09:29:00;103665.53;;;0.03;74.07
53932;BME280;39844;52.496;13.482;2023-02-05T09:31:25;103665.53;;;0.03;73.16
53932;BME280;39844;52.496;13.482;2023-02-05T09:33:50;103662.16;;;0.04;72.56
53932;BME280;39844;52.496;13.482;2023-02-05T09:36:20;103660.59;;;0.06;72.03
53932;BME280;39844;52.496;13.482;2023-02-05T09:38:47;103661.66;;;0.08;71.96
53932;BME280;39844;52.496;13.482;2023-02-05T09:44:24;103669.91;;;0.14;71.79
53932;BME280;39844;52.496;13.482;2023-02-05T09:49:35;103658.66;;;0.23;71.18
53932;BME280;39844;52.496;13.482;2023-02-05T09:52:52;103666.94;;;0.29;71.12
53932;BME280;39844;52.496;13.482;2023-02-05T09:55:00;103663.72;;;0.32;70.71
53932;BME280;39844;52.496;13.482;2023-02-05T09:57:34;103667.59;;;0.37;70.02
53932;BME280;39844;52.496;13.482;2023-02-05T10:00:00;103653.91;;;0.38;69.30
53932;BME280;39844;52.496;13.482;2023-02-05T10:03:06;103653.91;;;0.48;69.96
53932;BME280;39844;52.496;13.482;2023-02-05T10:05:43;103652.06;;;0.57;69.97
53932;BME280;39844;52.496;13.482;2023-02-05T10:10:46;103645.84;;;0.75;69.02
53932;BME280;39844;52.496;13.482;2023-02-05T10:13:35;103641.84;;;0.79;68.83
53932;BME280;39844;52.496;13.482;2023-02-05T10:16:33;103642.22;;;0.83;68.50
53932;BME280;39844;52.496;13.482;2023-02-05T10:20:32;103636.50;;;0.87;67.60
53932;BME280;39844;52.496;13.482;2023-02-05T10:22:30;103639.59;;;0.93;67.98
53932;BME280;39844;52.496;13.482;2023-02-05T10:25:15;103635.97;;;1.01;68.14
53932;BME280;39844;52.496;13.482;2023-02-05T10:27:48;103641.84;;;1.10;68.16
53932;BME280;39844;52.496;13.482;2023-02-05T10:30:50;103631.75;;;1.13;66.67
53932;BME280;39844;52.496;13.482;2023-02-05T10:33:46;103624.91;;;1.14;66.01
53932;BME280;39844;52.496;13.482;2023-02-05T10:36:13;103619.84;;;1.15;66.20
53932;BME280;39844;52.496;13.482;2023-02-05T10:38:43;103608.47;;;1.13;66.07
53932;BME280;39844;52.496;13.482;2023-02-05T10:41:21;103613.66;;;1.13;65.79
53932;BME280;39844;52.496;13.482;2023-02-05T10:46:34;103606.16;;;1.16;66.02
53932;BME280;39844;52.496;13.482;2023-02-05T10:49:34;103614.28;;;1.21;65.88
53932;BME280;39844;52.496;13.482;2023-02-05T10:51:59;103606.34;;;1.30;65.73
53932;BME280;39844;52.496;13.482;2023-02-05T10:54:27;103600.88;;;1.37;65.68
53932;BME280;39844;52.496;13.482;2023-02-05T10:56:54;103594.63;;;1.45;65.58
53932;BME280;39844;52.496;13.482;2023-02-05T10:59:30;103599.25;;;1.49;65.38
53932;BME280;39844;52.496;13.482;2023-02-05T11:02:02;103586.66;;;1.53;65.38
53932;BME280;39844;52.496;13.482;2023-02-05T11:04:43;103585.47;;;1.60;65.23
53932;BME280;39844;52.496;13.482;2023-02-05T11:07:13;103591.09;;;1.66;64.77
53932;BME280;39844;52.496;13.482;2023-02-05T11:09:38;103592.25;;;1.69;64.72
53932;BME280;39844;52.496;13.482;2023-02-05T11:12:26;103581.47;;;1.75;64.84
53932;BME280;39844;52.496;13.482;2023-02-05T11:14:59;103579.91;;;1.77;64.48
53932;BME280;39844;52.496;13.482;2023-02-05T11:17:32;103582.50;;;1.77;64.17
53932;BME280;39844;52.496;13.482;2023-02-05T11:20:22;103589.50;;;1.78;64.26
53932;BME280;39844;52.496;13.482;2023-02-05T11:22:48;103592.75;;;1.75;63.83
53932;BME280;39844;52.496;13.482;2023-02-05T11:25:22;103595.34;;;1.75;64.30
53932;BME280;39844;52.496;13.482;2023-02-05T11:27:58;103601.28;;;1.74;64.06
53932;BME280;39844;52.496;13.482;2023-02-05T11:30:32;103589.50;;;1.78;64.02
53932;BME280;39844;52.496;13.482;2023-02-05T11:33:16;103590.75;;;1.83;63.98
53932;BME280;39844;52.496;13.482;2023-02-05T11:35:58;103583.75;;;1.82;63.55
53932;BME280;39844;52.496;13.482;2023-02-05T11:38:30;103583.44;;;1.89;63.97
53932;BME280;39844;52.496;13.482;2023-02-05T11:40:59;103581.31;;;1.95;64.13
53932;BME280;39844;52.496;13.482;2023-02-05T11:43:30;103575.56;;;1.99;63.63
53932;BME280;39844;52.496;13.482;2023-02-05T11:45:57;103573.22;;;2.02;64.36
53932;BME280;39844;52.496;13.482;2023-02-05T11:48:39;103580.22;;;2.03;63.85
53932;BME280;39844;52.496;13.482;2023-02-05T11:51:08;103576.16;;;2.07;63.39
53932;BME280;39844;52.496;13.482;2023-02-05T11:53:34;103573.69;;;2.08;62.87
53932;BME280;39844;52.496;13.482;2023-02-05T11:56:04;103582.50;;;2.10;63.33
53932;BME280;39844;52.496;13.482;2023-02-05T11:58:31;103584.16;;;2.10;62.39
53932;BME280;39844;52.496;13.482;2023-02-05T12:01:00;103571.22;;;2.10;62.37
53932;BME280;39844;52.496;13.482;2023-02-05T12:03:28;103580.25;;;2.15;62.96
53932;BME280;39844;52.496;13.482;2023-02-05T12:05:58;103574.63;;;2.20;63.05
53932;BME280;39844;52.496;13.482;2023-02-05T12:08:38;103582.06;;;2.27;62.93
53932;BME280;39844;52.496;13.482;2023-02-05T12:19:30;103557.19;;;2.76;61.97
53932;BME280;39844;52.496;13.482;2023-02-05T12:28:01;103565.72;;;3.09;59.35
53932;BME280;39844;52.496;13.482;2023-02-05T12:38:36;103553.94;;;3.26;59.04
53932;BME280;39844;52.496;13.482;2023-02-05T12:41:36;103557.44;;;3.27;59.01
53932;BME280;39844;52.496;13.482;2023-02-05T12:44:23;103559.94;;;3.25;58.82
53932;BME280;39844;52.496;13.482;2023-02-05T12:51:56;103549.78;;;3.16;58.71
53932;BME280;39844;52.496;13.482;2023-02-05T12:56:59;103559.72;;;3.22;58.85
53932;BME280;39844;52.496;13.482;2023-02-05T13:05:18;103561.16;;;3.18;58.25
53932;BME280;39844;52.496;13.482;2023-02-05T13:10:22;103573.50;;;2.98;58.07
53932;BME280;39844;52.496;13.482;2023-02-05T13:12:52;103571.72;;;2.97;58.90
53932;BME280;39844;52.496;13.482;2023-02-05T13:15:33;103573.50;;;2.98;58.98
53932;BME280;39844;52.496;13.482;2023-02-05T13:20:43;103580.97;;;3.05;59.31
53932;BME280;39844;52.496;13.482;2023-02-05T13:23:11;103573.38;;;3.08;59.97
53932;BME280;39844;52.496;13.482;2023-02-05T13:25:40;103567.09;;;3.04;59.29
53932;BME280;39844;52.496;13.482;2023-02-05T13:28:38;103561.34;;;2.97;58.84
53932;BME280;39844;52.496;13.482;2023-02-05T13:31:29;103566.31;;;2.94;58.84
53932;BME280;39844;52.496;13.482;2023-02-05T13:33:55;103581.88;;;2.94;59.23
53932;BME280;39844;52.496;13.482;2023-02-05T13:39:14;103570.91;;;2.98;59.45
53932;BME280;39844;52.496;13.482;2023-02-05T13:42:05;103578.13;;;3.02;59.43
53932;BME280;39844;52.496;13.482;2023-02-05T13:59:15;103598.56;;;2.86;58.78
53932;BME280;39844;52.496;13.482;2023-02-05T14:01:50;103595.63;;;2.81;58.16
53932;BME280;39844;52.496;13.482;2023-02-05T14:07:21;103591.00;;;2.77;57.85
53932;BME280;39844;52.496;13.482;2023-02-05T14:09:51;103596.41;;;2.80;58.26
53932;BME280;39844;52.496;13.482;2023-02-05T14:12:35;103585.25;;;2.81;57.65
53932;BME280;39844;52.496;13.482;2023-02-05T14:22:51;103578.72;;;2.86;57.64
53932;BME280;39844;52.496;13.482;2023-02-05T14:28:31;103581.63;;;2.91;57.36
53932;BME280;39844;52.496;13.482;2023-02-05T14:30:58;103567.31;;;2.96;57.32
53932;BME280;39844;52.496;13.482;2023-02-05T14:39:41;103557.84;;;2.85;56.99
53932;BME280;39844;52.496;13.482;2023-02-05T14:42:06;103549.41;;;2.76;56.02
53932;BME280;39844;52.496;13.482;2023-02-05T14:44:37;103546.56;;;2.73;56.85
53932;BME280;39844;52.496;13.482;2023-02-05T14:47:20;103541.97;;;2.69;57.16
53932;BME280;39844;52.496;13.482;2023-02-05T14:49:47;103547.16;;;2.69;57.22
53932;BME280;39844;52.496;13.482;2023-02-05T14:52:26;103546.25;;;2.68;57.52
53932;BME280;39844;52.496;13.482;2023-02-05T14:57:45;103550.66;;;2.69;57.51
53932;BME280;39844;52.496;13.482;2023-02-05T15:13:28;103570.50;;;2.69;58.52